sensor_id;sensor_type;location;lat;lon;timestamp;pressure;altitude;pressure_sealevel;temperature;humidity
3917;BME280;1973;50.518;7.318;2024-03-02T00:00:20;99509.81;;;9.03;100.00
3917;BME280;1973;50.518;7.318;2024-03-02T00:02:49;99516.50;;;9.07;100.00
3917;BME280;1973;50.518;7.318;2024-03-02T00:05:20;99509.94;;;9.08;100.00
3917;BME280;1973;50.518;7.318;2024-03-02T00:07:58;99513.28;;;9.10;100.00
3917;BME280;1973;50.518;7.318;2024-03-02T00:10:25;99509.81;;;9.15;100.00
3917;BME280;1973;50.518;7.318;2024-03-02T00:12:56;99513.75;;;9.19;100.00
3917;BME280;1973;50.518;7.318;2024-03-02T00:15:42;99513.06;;;9.23;100.00
3917;BME280;1973;50.518;7.318;2024-03-02T00:18:13;99516.97;;;9.27;100.00
3917;BME280;1973;50.518;7.318;2024-03-02T00:20:41;99519.84;;;9.33;100.00
3917;BME280;1973;50.518;7.318;2024-03-02T00:23:09;99512.22;;;9.35;100.00
3917;BME280;1973;50.518;7.318;2024-03-02T00:25:44;99511.72;;;9.38;100.00
3917;BME280;1973;50.518;7.318;2024-03-02T00:28:24;99502.41;;;9.39;100.00
3917;BME280;1973;50.518;7.318;2024-03-02T00:31:06;99498.59;;;9.40;100.00
3917;BME280;1973;50.518;7.318;2024-03-02T00:33:40;99485.91;;;9.39;100.00
3917;BME280;1973;50.518;7.318;2024-03-02T00:36:08;99490.59;;;9.38;100.00
3917;BME280;1973;50.518;7.318;2024-03-02T00:38:44;99494.16;;;9.39;100.00
3917;BME280;1973;50.518;7.318;2024-03-02T00:41:16;99489.50;;;9.39;100.00
3917;BME280;1973;50.518;7.318;2024-03-02T00:43:45;99484.28;;;9.38;100.00
3917;BME280;1973;50.518;7.318;2024-03-02T00:46:20;99480.41;;;9.39;100.00
3917;BME280;1973;50.518;7.318;2024-03-02T00:48:55;99477.22;;;9.42;100.00
3917;BME280;1973;50.518;7.318;2024-03-02T00:51:24;99478.63;;;9.44;100.00
3917;BME280;1973;50.518;7.318;2024-03-02T00:53:52;99474.00;;;9.45;100.00
3917;BME280;1973;50.518;7.318;2024-03-02T00:56:23;99469.34;;;9.45;100.00
3917;BME280;1973;50.518;7.318;2024-03-02T00:58:50;99481.16;;;9.46;100.00
3917;BME280;1973;50.518;7.318;2024-03-02T01:01:17;99471.81;;;9.47;100.00
3917;BME280;1973;50.518;7.318;2024-03-02T01:03:46;99473.50;;;9.48;100.00
3917;BME280;1973;50.518;7.318;2024-03-02T01:06:12;99481.75;;;9.48;100.00
3917;BME280;1973;50.518;7.318;2024-03-02T01:08:39;99476.72;;;9.45;100.00
3917;BME280;1973;50.518;7.318;2024-03-02T01:11:06;99480.81;;;9.42;100.00
3917;BME280;1973;50.518;7.318;2024-03-02T01:13:32;99481.03;;;9.41;100.00
3917;BME280;1973;50.518;7.318;2024-03-02T01:15:59;99488.44;;;9.40;100.00
3917;BME280;1973;50.518;7.318;2024-03-02T01:18:26;99478.78;;;9.38;100.00
3917;BME280;1973;50.518;7.318;2024-03-02T01:20:53;99484.41;;;9.31;100.00
3917;BME280;1973;50.518;7.318;2024-03-02T01:23:23;99470.91;;;9.29;100.00
3917;BME280;1973;50.518;7.318;2024-03-02T01:25:51;99476.03;;;9.26;100.00
3917;BME280;1973;50.518;7.318;2024-03-02T01:28:18;99474.63;;;9.23;100.00
3917;BME280;1973;50.518;7.318;2024-03-02T01:30:45;99472.81;;;9.17;100.00
3917;BME280;1973;50.518;7.318;2024-03-02T01:33:11;99484.63;;;9.18;100.00
3917;BME280;1973;50.518;7.318;2024-03-02T01:35:38;99473.66;;;9.18;100.00
3917;BME280;1973;50.518;7.318;2024-03-02T01:38:05;99474.13;;;9.15;100.00
3917;BME280;1973;50.518;7.318;2024-03-02T01:40:34;99478.78;;;9.14;100.00
3917;BME280;1973;50.518;7.318;2024-03-02T01:43:01;99487.50;;;9.11;100.00
3917;BME280;1973;50.518;7.318;2024-03-02T01:45:28;99478.41;;;9.11;100.00
3917;BME280;1973;50.518;7.318;2024-03-02T01:47:56;99480.31;;;9.10;100.00
3917;BME280;1973;50.518;7.318;2024-03-02T01:50:31;99478.66;;;9.09;100.00
3917;BME280;1973;50.518;7.318;2024-03-02T01:52:58;99477.59;;;9.10;100.00
3917;BME280;1973;50.518;7.318;2024-03-02T01:55:25;99471.25;;;9.10;100.00
3917;BME280;1973;50.518;7.318;2024-03-02T01:57:53;99467.31;;;9.06;100.00
3917;BME280;1973;50.518;7.318;2024-03-02T02:00:21;99469.69;;;9.02;100.00
3917;BME280;1973;50.518;7.318;2024-03-02T02:02:48;99468.41;;;8.93;100.00
3917;BME280;1973;50.518;7.318;2024-03-02T02:05:15;99466.59;;;8.87;100.00
3917;BME280;1973;50.518;7.318;2024-03-02T02:07:42;99476.38;;;8.83;100.00
3917;BME280;1973;50.518;7.318;2024-03-02T02:10:12;99470.50;;;8.79;100.00
3917;BME280;1973;50.518;7.318;2024-03-02T02:12:39;99471.47;;;8.73;100.00
3917;BME280;1973;50.518;7.318;2024-03-02T02:15:29;99467.78;;;8.68;100.00
3917;BME280;1973;50.518;7.318;2024-03-02T02:17:57;99462.16;;;8.63;100.00
3917;BME280;1973;50.518;7.318;2024-03-02T02:20:25;99464.16;;;8.56;100.00
3917;BME280;1973;50.518;7.318;2024-03-02T02:22:55;99461.75;;;8.48;100.00
3917;BME280;1973;50.518;7.318;2024-03-02T02:25:22;99464.25;;;8.38;100.00
3917;BME280;1973;50.518;7.318;2024-03-02T02:27:49;99458.41;;;8.34;100.00
3917;BME280;1973;50.518;7.318;2024-03-02T02:30:20;99455.94;;;8.26;100.00
3917;BME280;1973;50.518;7.318;2024-03-02T02:32:47;99459.84;;;8.18;100.00
3917;BME280;1973;50.518;7.318;2024-03-02T02:35:14;99458.50;;;8.09;100.00
3917;BME280;1973;50.518;7.318;2024-03-02T02:37:41;99452.28;;;8.02;100.00
3917;BME280;1973;50.518;7.318;2024-03-02T02:40:08;99451.78;;;7.94;100.00
3917;BME280;1973;50.518;7.318;2024-03-02T02:42:35;99447.09;;;7.82;100.00
3917;BME280;1973;50.518;7.318;2024-03-02T02:45:02;99442.97;;;7.73;100.00
3917;BME280;1973;50.518;7.318;2024-03-02T02:47:28;99435.91;;;7.66;100.00
3917;BME280;1973;50.518;7.318;2024-03-02T02:49:56;99433.50;;;7.58;100.00
3917;BME280;1973;50.518;7.318;2024-03-02T02:52:22;99436.56;;;7.50;100.00
3917;BME280;1973;50.518;7.318;2024-03-02T02:54:49;99434.97;;;7.42;100.00
3917;BME280;1973;50.518;7.318;2024-03-02T02:57:15;99433.38;;;7.34;100.00
3917;BME280;1973;50.518;7.318;2024-03-02T02:59:42;99437.47;;;7.25;100.00
3917;BME280;1973;50.518;7.318;2024-03-02T03:02:08;99446.59;;;7.19;100.00
3917;BME280;1973;50.518;7.318;2024-03-02T03:04:35;99455.69;;;7.13;100.00
3917;BME280;1973;50.518;7.318;2024-03-02T03:07:01;99445.91;;;7.06;100.00
3917;BME280;1973;50.518;7.318;2024-03-02T03:09:28;99450.38;;;7.00;100.00
3917;BME280;1973;50.518;7.318;2024-03-02T03:11:55;99456.75;;;6.94;100.00
3917;BME280;1973;50.518;7.318;2024-03-02T03:14:21;99449.16;;;6.96;100.00
3917;BME280;1973;50.518;7.318;2024-03-02T03:16:47;99449.97;;;6.97;100.00
3917;BME280;1973;50.518;7.318;2024-03-02T03:19:15;99453.56;;;6.97;100.00
3917;BME280;1973;50.518;7.318;2024-03-02T03:21:43;99455.25;;;6.98;100.00
3917;BME280;1973;50.518;7.318;2024-03-02T03:24:10;99463.66;;;6.97;100.00
3917;BME280;1973;50.518;7.318;2024-03-02T03:26:36;99469.97;;;6.97;100.00
3917;BME280;1973;50.518;7.318;2024-03-02T03:29:03;99465.81;;;6.95;100.00
3917;BME280;1973;50.518;7.318;2024-03-02T03:31:29;99464.97;;;6.94;100.00
3917;BME280;1973;50.518;7.318;2024-03-02T03:33:56;99467.06;;;6.92;100.00
3917;BME280;1973;50.518;7.318;2024-03-02T03:36:23;99472.78;;;6.91;100.00
3917;BME280;1973;50.518;7.318;2024-03-02T03:38:49;99465.84;;;6.88;100.00
3917;BME280;1973;50.518;7.318;2024-03-02T03:41:16;99464.19;;;6.87;100.00
3917;BME280;1973;50.518;7.318;2024-03-02T03:43:42;99467.97;;;6.86;100.00
3917;BME280;1973;50.518;7.318;2024-03-02T03:46:09;99455.34;;;6.85;100.00
3917;BME280;1973;50.518;7.318;2024-03-02T03:48:35;99454.31;;;6.86;100.00
3917;BME280;1973;50.518;7.318;2024-03-02T03:51:02;99450.50;;;6.87;100.00
3917;BME280;1973;50.518;7.318;2024-03-02T03:53:28;99453.25;;;6.87;100.00
3917;BME280;1973;50.518;7.318;2024-03-02T03:55:55;99456.19;;;6.85;100.00
3917;BME280;1973;50.518;7.318;2024-03-02T03:58:21;99455.34;;;6.85;100.00
3917;BME280;1973;50.518;7.318;2024-03-02T04:00:48;99453.66;;;6.84;100.00
3917;BME280;1973;50.518;7.318;2024-03-02T04:03:15;99461.66;;;6.85;100.00
3917;BME280;1973;50.518;7.318;2024-03-02T04:05:42;99460.81;;;6.85;100.00
3917;BME280;1973;50.518;7.318;2024-03-02T04:08:08;99457.25;;;6.84;100.00
3917;BME280;1973;50.518;7.318;2024-03-02T04:10:35;99455.34;;;6.85;100.00
3917;BME280;1973;50.518;7.318;2024-03-02T04:13:01;99460.81;;;6.85;100.00
3917;BME280;1973;50.518;7.318;2024-03-02T04:15:28;99463.34;;;6.87;100.00
3917;BME280;1973;50.518;7.318;2024-03-02T04:17:54;99454.31;;;6.86;100.00
3917;BME280;1973;50.518;7.318;2024-03-02T04:20:22;99465.25;;;6.86;100.00
3917;BME280;1973;50.518;7.318;2024-03-02T04:22:48;99461.44;;;6.87;100.00
3917;BME280;1973;50.518;7.318;2024-03-02T04:25:15;99462.50;;;6.86;100.00
3917;BME280;1973;50.518;7.318;2024-03-02T04:27:41;99464.63;;;6.84;100.00
3917;BME280;1973;50.518;7.318;2024-03-02T04:30:08;99468.84;;;6.80;100.00
3917;BME280;1973;50.518;7.318;2024-03-02T04:32:34;99464.28;;;6.74;100.00
3917;BME280;1973;50.518;7.318;2024-03-02T04:35:03;99454.84;;;6.70;100.00
3917;BME280;1973;50.518;7.318;2024-03-02T04:37:31;99466.25;;;6.67;100.00
3917;BME280;1973;50.518;7.318;2024-03-02T04:39:58;99473.22;;;6.63;100.00
3917;BME280;1973;50.518;7.318;2024-03-02T04:42:24;99484.59;;;6.60;100.00
3917;BME280;1973;50.518;7.318;2024-03-02T04:44:51;99485.06;;;6.57;100.00
3917;BME280;1973;50.518;7.318;2024-03-02T04:47:17;99497.88;;;6.56;100.00
3917;BME280;1973;50.518;7.318;2024-03-02T04:49:44;99490.53;;;6.57;100.00
3917;BME280;1973;50.518;7.318;2024-03-02T04:52:11;99505.25;;;6.56;100.00
3917;BME280;1973;50.518;7.318;2024-03-02T04:54:37;99501.47;;;6.57;100.00
3917;BME280;1973;50.518;7.318;2024-03-02T04:57:24;99498.72;;;6.57;100.00
3917;BME280;1973;50.518;7.318;2024-03-02T04:59:50;99507.78;;;6.57;100.00
3917;BME280;1973;50.518;7.318;2024-03-02T05:02:17;99510.72;;;6.56;100.00
3917;BME280;1973;50.518;7.318;2024-03-02T05:04:43;99507.78;;;6.57;100.00
3917;BME280;1973;50.518;7.318;2024-03-02T05:07:10;99514.88;;;6.58;100.00
3917;BME280;1973;50.518;7.318;2024-03-02T05:09:36;99522.03;;;6.59;100.00
3917;BME280;1973;50.518;7.318;2024-03-02T05:12:03;99517.41;;;6.60;100.00
3917;BME280;1973;50.518;7.318;2024-03-02T05:14:30;99524.56;;;6.61;100.00
3917;BME280;1973;50.518;7.318;2024-03-02T05:16:56;99526.22;;;6.62;100.00
3917;BME280;1973;50.518;7.318;2024-03-02T05:19:23;99520.16;;;6.60;100.00
3917;BME280;1973;50.518;7.318;2024-03-02T05:21:49;99515.13;;;6.57;100.00
3917;BME280;1973;50.518;7.318;2024-03-02T05:24:16;99511.75;;;6.55;100.00
3917;BME280;1973;50.518;7.318;2024-03-02T05:26:42;99507.78;;;6.51;100.00
3917;BME280;1973;50.518;7.318;2024-03-02T05:29:10;99521.47;;;6.51;100.00
3917;BME280;1973;50.518;7.318;2024-03-02T05:31:36;99527.16;;;6.49;100.00
3917;BME280;1973;50.518;7.318;2024-03-02T05:34:02;99529.06;;;6.49;100.00
3917;BME280;1973;50.518;7.318;2024-03-02T05:36:29;99532.84;;;6.48;100.00
3917;BME280;1973;50.518;7.318;2024-03-02T05:38:56;99529.91;;;6.49;100.00
3917;BME280;1973;50.518;7.318;2024-03-02T05:41:22;99525.28;;;6.50;100.00
3917;BME280;1973;50.518;7.318;2024-03-02T05:43:49;99524.81;;;6.53;100.00
3917;BME280;1973;50.518;7.318;2024-03-02T05:46:15;99520.41;;;6.52;100.00
3917;BME280;1973;50.518;7.318;2024-03-02T05:48:42;99505.91;;;6.51;100.00
3917;BME280;1973;50.518;7.318;2024-03-02T05:51:08;99516.22;;;6.49;100.00
3917;BME280;1973;50.518;7.318;2024-03-02T05:53:35;99517.72;;;6.45;100.00
3917;BME280;1973;50.518;7.318;2024-03-02T05:56:05;99519.81;;;6.43;100.00
3917;BME280;1973;50.518;7.318;2024-03-02T05:58:31;99521.13;;;6.41;100.00
3917;BME280;1973;50.518;7.318;2024-03-02T06:01:19;99534.19;;;6.39;100.00
3917;BME280;1973;50.518;7.318;2024-03-02T06:03:46;99536.28;;;6.36;100.00
3917;BME280;1973;50.518;7.318;2024-03-02T06:06:12;99534.38;;;6.37;100.00
3917;BME280;1973;50.518;7.318;2024-03-02T06:08:39;99532.28;;;6.39;100.00
3917;BME280;1973;50.518;7.318;2024-03-02T06:11:05;99542.38;;;6.39;100.00
3917;BME280;1973;50.518;7.318;2024-03-02T06:13:32;99546.75;;;6.40;100.00
3917;BME280;1973;50.518;7.318;2024-03-02T06:15:59;99549.50;;;6.40;100.00
3917;BME280;1973;50.518;7.318;2024-03-02T06:18:25;99552.88;;;6.42;100.00
3917;BME280;1973;50.518;7.318;2024-03-02T06:20:52;99560.81;;;6.43;100.00
3917;BME280;1973;50.518;7.318;2024-03-02T06:23:18;99572.19;;;6.47;100.00
3917;BME280;1973;50.518;7.318;2024-03-02T06:25:45;99567.53;;;6.47;100.00
3917;BME280;1973;50.518;7.318;2024-03-02T06:28:11;99563.53;;;6.50;100.00
3917;BME280;1973;50.518;7.318;2024-03-02T06:30:38;99564.38;;;6.50;100.00
3917;BME280;1973;50.518;7.318;2024-03-02T06:33:04;99557.63;;;6.53;100.00
3917;BME280;1973;50.518;7.318;2024-03-02T06:35:32;99562.06;;;6.54;100.00
3917;BME280;1973;50.518;7.318;2024-03-02T06:37:59;99563.09;;;6.53;100.00
3917;BME280;1973;50.518;7.318;2024-03-02T06:40:25;99567.53;;;6.54;100.00
3917;BME280;1973;50.518;7.318;2024-03-02T06:42:52;99576.78;;;6.53;100.00
3917;BME280;1973;50.518;7.318;2024-03-02T06:45:18;99570.47;;;6.52;100.00
3917;BME280;1973;50.518;7.318;2024-03-02T06:47:45;99573.19;;;6.52;100.00
3917;BME280;1973;50.518;7.318;2024-03-02T06:50:12;99578.44;;;6.54;100.00
3917;BME280;1973;50.518;7.318;2024-03-02T06:52:38;99572.97;;;6.54;100.00
3917;BME280;1973;50.518;7.318;2024-03-02T06:55:05;99582.63;;;6.56;100.00
3917;BME280;1973;50.518;7.318;2024-03-02T06:57:32;99575.03;;;6.58;100.00
3917;BME280;1973;50.518;7.318;2024-03-02T06:59:59;99573.78;;;6.61;100.00
3917;BME280;1973;50.518;7.318;2024-03-02T07:02:25;99572.28;;;6.65;100.00
3917;BME280;1973;50.518;7.318;2024-03-02T07:04:53;99569.94;;;6.68;100.00
3917;BME280;1973;50.518;7.318;2024-03-02T07:07:20;99576.00;;;6.70;100.00
3917;BME280;1973;50.518;7.318;2024-03-02T07:09:47;99573.69;;;6.74;100.00
3917;BME280;1973;50.518;7.318;2024-03-02T07:12:14;99571.56;;;6.76;100.00
3917;BME280;1973;50.518;7.318;2024-03-02T07:14:41;99578.25;;;6.80;100.00
3917;BME280;1973;50.518;7.318;2024-03-02T07:17:26;99569.00;;;6.81;100.00
3917;BME280;1973;50.518;7.318;2024-03-02T07:19:52;99573.41;;;6.82;100.00
3917;BME280;1973;50.518;7.318;2024-03-02T07:22:20;99570.22;;;6.85;100.00
3917;BME280;1973;50.518;7.318;2024-03-02T07:24:46;99576.09;;;6.89;100.00
3917;BME280;1973;50.518;7.318;2024-03-02T07:27:13;99578.16;;;6.93;100.00
3917;BME280;1973;50.518;7.318;2024-03-02T07:29:39;99582.75;;;6.99;100.00
3917;BME280;1973;50.518;7.318;2024-03-02T07:32:07;99582.72;;;7.06;100.00
3917;BME280;1973;50.518;7.318;2024-03-02T07:34:34;99586.00;;;7.14;100.00
3917;BME280;1973;50.518;7.318;2024-03-02T07:37:01;99583.81;;;7.23;100.00
3917;BME280;1973;50.518;7.318;2024-03-02T07:39:28;99598.66;;;7.33;100.00
3917;BME280;1973;50.518;7.318;2024-03-02T07:41:56;99597.03;;;7.51;100.00
3917;BME280;1973;50.518;7.318;2024-03-02T07:44:22;99590.59;;;7.63;100.00
3917;BME280;1973;50.518;7.318;2024-03-02T07:46:49;99594.03;;;7.77;100.00
3917;BME280;1973;50.518;7.318;2024-03-02T07:49:16;99596.00;;;7.88;100.00
3917;BME280;1973;50.518;7.318;2024-03-02T07:51:43;99595.03;;;8.01;100.00
3917;BME280;1973;50.518;7.318;2024-03-02T07:54:10;99606.06;;;8.12;100.00
3917;BME280;1973;50.518;7.318;2024-03-02T07:56:37;99592.66;;;8.22;100.00
3917;BME280;1973;50.518;7.318;2024-03-02T07:59:04;99613.84;;;8.34;100.00
3917;BME280;1973;50.518;7.318;2024-03-02T08:01:31;99602.31;;;8.43;100.00
3917;BME280;1973;50.518;7.318;2024-03-02T08:04:00;99599.63;;;8.55;100.00
3917;BME280;1973;50.518;7.318;2024-03-02T08:06:27;99599.69;;;8.66;100.00
3917;BME280;1973;50.518;7.318;2024-03-02T08:08:55;99598.03;;;8.77;100.00
3917;BME280;1973;50.518;7.318;2024-03-02T08:11:22;99590.06;;;8.87;100.00
3917;BME280;1973;50.518;7.318;2024-03-02T08:13:49;99590.34;;;8.97;100.00
3917;BME280;1973;50.518;7.318;2024-03-02T08:16:16;99589.41;;;9.03;100.00
3917;BME280;1973;50.518;7.318;2024-03-02T08:18:46;99593.34;;;9.07;100.00
3917;BME280;1973;50.518;7.318;2024-03-02T08:21:13;99596.47;;;9.11;100.00
3917;BME280;1973;50.518;7.318;2024-03-02T08:23:40;99591.69;;;9.18;100.00
3917;BME280;1973;50.518;7.318;2024-03-02T08:26:10;99598.19;;;9.23;100.00
3917;BME280;1973;50.518;7.318;2024-03-02T08:28:37;99578.84;;;9.30;100.00
3917;BME280;1973;50.518;7.318;2024-03-02T08:31:07;99580.63;;;9.36;100.00
3917;BME280;1973;50.518;7.318;2024-03-02T08:33:34;99576.56;;;9.39;100.00
3917;BME280;1973;50.518;7.318;2024-03-02T08:36:04;99571.19;;;9.44;100.00
3917;BME280;1973;50.518;7.318;2024-03-02T08:38:31;99578.25;;;9.51;100.00
3917;BME280;1973;50.518;7.318;2024-03-02T08:40:58;99587.19;;;9.58;100.00
3917;BME280;1973;50.518;7.318;2024-03-02T08:43:24;99588.75;;;9.66;100.00
3917;BME280;1973;50.518;7.318;2024-03-02T08:45:51;99596.63;;;9.74;100.00
3917;BME280;1973;50.518;7.318;2024-03-02T08:48:18;99601.28;;;9.85;100.00
3917;BME280;1973;50.518;7.318;2024-03-02T08:50:44;99595.16;;;9.95;100.00
3917;BME280;1973;50.518;7.318;2024-03-02T08:53:11;99596.72;;;10.02;100.00
3917;BME280;1973;50.518;7.318;2024-03-02T08:55:38;99600.16;;;10.09;100.00
3917;BME280;1973;50.518;7.318;2024-03-02T08:58:05;99605.81;;;10.14;100.00
3917;BME280;1973;50.518;7.318;2024-03-02T09:00:32;99603.19;;;10.19;100.00
3917;BME280;1973;50.518;7.318;2024-03-02T09:02:59;99611.03;;;10.27;100.00
3917;BME280;1973;50.518;7.318;2024-03-02T09:05:26;99604.59;;;10.34;100.00
3917;BME280;1973;50.518;7.318;2024-03-02T09:07:52;99594.75;;;10.38;100.00
3917;BME280;1973;50.518;7.318;2024-03-02T09:10:19;99599.28;;;10.44;100.00
3917;BME280;1973;50.518;7.318;2024-03-02T09:12:45;99614.34;;;10.53;100.00
3917;BME280;1973;50.518;7.318;2024-03-02T09:15:12;99594.31;;;10.57;100.00
3917;BME280;1973;50.518;7.318;2024-03-02T09:17:38;99584.34;;;10.68;100.00
3917;BME280;1973;50.518;7.318;2024-03-02T09:20:05;99587.81;;;10.75;100.00
3917;BME280;1973;50.518;7.318;2024-03-02T09:22:32;99584.06;;;10.81;100.00
3917;BME280;1973;50.518;7.318;2024-03-02T09:24:58;99577.03;;;10.90;100.00
3917;BME280;1973;50.518;7.318;2024-03-02T09:27:26;99577.16;;;10.95;100.00
3917;BME280;1973;50.518;7.318;2024-03-02T09:29:52;99573.38;;;11.01;100.00
3917;BME280;1973;50.518;7.318;2024-03-02T09:32:19;99569.16;;;11.10;100.00
3917;BME280;1973;50.518;7.318;2024-03-02T09:34:45;99566.75;;;11.14;100.00
3917;BME280;1973;50.518;7.318;2024-03-02T09:37:12;99568.25;;;11.21;100.00
3917;BME280;1973;50.518;7.318;2024-03-02T09:39:39;99572.19;;;11.26;100.00
3917;BME280;1973;50.518;7.318;2024-03-02T09:42:06;99556.81;;;11.30;100.00
3917;BME280;1973;50.518;7.318;2024-03-02T09:44:33;99555.88;;;11.41;100.00
3917;BME280;1973;50.518;7.318;2024-03-02T09:47:00;99556.56;;;11.48;100.00
3917;BME280;1973;50.518;7.318;2024-03-02T09:49:26;99555.03;;;11.57;100.00
3917;BME280;1973;50.518;7.318;2024-03-02T09:51:53;99564.03;;;11.69;100.00
3917;BME280;1973;50.518;7.318;2024-03-02T09:54:20;99555.38;;;11.77;100.00
3917;BME280;1973;50.518;7.318;2024-03-02T09:56:49;99543.81;;;11.80;100.00
3917;BME280;1973;50.518;7.318;2024-03-02T09:59:17;99555.50;;;11.87;100.00
3917;BME280;1973;50.518;7.318;2024-03-02T10:02:02;99561.16;;;11.97;100.00
3917;BME280;1973;50.518;7.318;2024-03-02T10:04:29;99560.72;;;12.05;100.00
3917;BME280;1973;50.518;7.318;2024-03-02T10:07:11;99553.16;;;12.17;100.00
3917;BME280;1973;50.518;7.318;2024-03-02T10:09:38;99549.53;;;12.39;100.00
3917;BME280;1973;50.518;7.318;2024-03-02T10:12:09;99545.09;;;12.59;100.00
3917;BME280;1973;50.518;7.318;2024-03-02T10:14:36;99542.59;;;12.85;100.00
3917;BME280;1973;50.518;7.318;2024-03-02T10:17:07;99542.75;;;13.00;99.71
3917;BME280;1973;50.518;7.318;2024-03-02T10:19:35;99552.47;;;13.07;99.68
3917;BME280;1973;50.518;7.318;2024-03-02T10:22:08;99539.84;;;13.11;96.70
3917;BME280;1973;50.518;7.318;2024-03-02T10:24:43;99547.94;;;13.23;97.21
3917;BME280;1973;50.518;7.318;2024-03-02T10:27:17;99540.66;;;13.44;94.76
3917;BME280;1973;50.518;7.318;2024-03-02T10:29:47;99543.13;;;13.40;92.77
3917;BME280;1973;50.518;7.318;2024-03-02T10:32:15;99542.22;;;13.30;93.99
3917;BME280;1973;50.518;7.318;2024-03-02T10:34:44;99549.06;;;13.27;93.98
3917;BME280;1973;50.518;7.318;2024-03-02T10:37:11;99544.88;;;13.20;93.52
3917;BME280;1973;50.518;7.318;2024-03-02T10:39:39;99538.72;;;13.12;93.43
3917;BME280;1973;50.518;7.318;2024-03-02T10:42:07;99536.75;;;13.08;93.24
3917;BME280;1973;50.518;7.318;2024-03-02T10:44:34;99531.28;;;13.13;94.21
3917;BME280;1973;50.518;7.318;2024-03-02T10:47:03;99541.50;;;13.12;93.11
3917;BME280;1973;50.518;7.318;2024-03-02T10:49:31;99525.94;;;13.06;93.40
3917;BME280;1973;50.518;7.318;2024-03-02T10:51:58;99529.19;;;12.98;93.69
3917;BME280;1973;50.518;7.318;2024-03-02T10:54:26;99520.88;;;12.93;93.17
3917;BME280;1973;50.518;7.318;2024-03-02T10:56:53;99524.75;;;12.97;93.44
3917;BME280;1973;50.518;7.318;2024-03-02T10:59:27;99514.81;;;12.96;92.57
3917;BME280;1973;50.518;7.318;2024-03-02T11:01:59;99521.47;;;13.00;92.88
3917;BME280;1973;50.518;7.318;2024-03-02T11:04:31;99521.72;;;12.99;93.56
3917;BME280;1973;50.518;7.318;2024-03-02T11:07:08;99509.06;;;13.03;93.38
3917;BME280;1973;50.518;7.318;2024-03-02T11:09:52;99523.75;;;13.08;92.51
3917;BME280;1973;50.518;7.318;2024-03-02T11:12:31;99524.06;;;13.12;93.94
3917;BME280;1973;50.518;7.318;2024-03-02T11:15:00;99522.72;;;13.14;93.98
3917;BME280;1973;50.518;7.318;2024-03-02T11:17:27;99522.72;;;13.14;93.51
3917;BME280;1973;50.518;7.318;2024-03-02T11:19:54;99525.81;;;13.23;94.07
3917;BME280;1973;50.518;7.318;2024-03-02T11:22:21;99516.44;;;13.24;93.66
3917;BME280;1973;50.518;7.318;2024-03-02T11:24:49;99522.75;;;13.20;92.80
3917;BME280;1973;50.518;7.318;2024-03-02T11:33:07;99511.28;;;13.38;91.80
3917;BME280;1973;50.518;7.318;2024-03-02T11:35:38;99506.91;;;13.42;91.12
3917;BME280;1973;50.518;7.318;2024-03-02T11:38:07;99504.72;;;13.44;90.89
3917;BME280;1973;50.518;7.318;2024-03-02T11:40:33;99511.34;;;13.43;91.00
3917;BME280;1973;50.518;7.318;2024-03-02T11:43:00;99498.66;;;13.47;91.15
3917;BME280;1973;50.518;7.318;2024-03-02T11:45:27;99495.38;;;13.55;90.93
3917;BME280;1973;50.518;7.318;2024-03-02T11:47:58;99489.59;;;13.61;90.73
3917;BME280;1973;50.518;7.318;2024-03-02T11:50:39;99496.28;;;13.65;88.86
3917;BME280;1973;50.518;7.318;2024-03-02T11:53:07;99491.56;;;13.66;89.67
3917;BME280;1973;50.518;7.318;2024-03-02T11:55:38;99482.75;;;13.69;88.91
3917;BME280;1973;50.518;7.318;2024-03-02T11:58:06;99492.16;;;13.73;88.87
3917;BME280;1973;50.518;7.318;2024-03-02T12:00:33;99489.56;;;14.08;88.43
3917;BME280;1973;50.518;7.318;2024-03-02T12:03:01;99473.66;;;14.46;83.96
3917;BME280;1973;50.518;7.318;2024-03-02T12:05:29;99473.16;;;14.69;79.79
3917;BME280;1973;50.518;7.318;2024-03-02T12:07:57;99465.13;;;14.78;78.73
3917;BME280;1973;50.518;7.318;2024-03-02T12:10:25;99469.00;;;14.87;77.28
3917;BME280;1973;50.518;7.318;2024-03-02T12:12:59;99458.19;;;14.80;75.41
3917;BME280;1973;50.518;7.318;2024-03-02T12:15:27;99460.97;;;14.70;77.31
3917;BME280;1973;50.518;7.318;2024-03-02T12:17:55;99456.81;;;14.73;77.45
3917;BME280;1973;50.518;7.318;2024-03-02T12:20:23;99456.53;;;14.69;77.57
3917;BME280;1973;50.518;7.318;2024-03-02T12:22:53;99454.88;;;14.63;75.97
3917;BME280;1973;50.518;7.318;2024-03-02T12:25:21;99445.44;;;14.69;77.84
3917;BME280;1973;50.518;7.318;2024-03-02T12:27:49;99445.72;;;14.73;75.88
3917;BME280;1973;50.518;7.318;2024-03-02T12:30:17;99438.81;;;14.85;74.99
3917;BME280;1973;50.518;7.318;2024-03-02T12:32:44;99431.31;;;15.21;73.11
3917;BME280;1973;50.518;7.318;2024-03-02T12:35:11;99426.78;;;15.61;70.40
3917;BME280;1973;50.518;7.318;2024-03-02T12:37:47;99423.63;;;15.92;67.89
3917;BME280;1973;50.518;7.318;2024-03-02T12:40:15;99415.56;;;15.96;67.46
3917;BME280;1973;50.518;7.318;2024-03-02T12:42:47;99427.00;;;15.84;65.70
3917;BME280;1973;50.518;7.318;2024-03-02T12:45:15;99436.41;;;15.88;64.87
3917;BME280;1973;50.518;7.318;2024-03-02T12:47:42;99427.56;;;15.76;64.79
3917;BME280;1973;50.518;7.318;2024-03-02T12:50:09;99424.31;;;15.54;63.34
3917;BME280;1973;50.518;7.318;2024-03-02T12:52:36;99433.19;;;15.46;61.67
3917;BME280;1973;50.518;7.318;2024-03-02T12:55:04;99422.13;;;15.36;62.10
3917;BME280;1973;50.518;7.318;2024-03-02T12:57:32;99419.88;;;15.38;63.41
3917;BME280;1973;50.518;7.318;2024-03-02T13:00:01;99423.78;;;15.32;62.68
3917;BME280;1973;50.518;7.318;2024-03-02T13:02:29;99414.63;;;15.36;63.05
3917;BME280;1973;50.518;7.318;2024-03-02T13:04:56;99414.63;;;15.36;62.81
3917;BME280;1973;50.518;7.318;2024-03-02T13:07:24;99409.88;;;15.47;61.51
3917;BME280;1973;50.518;7.318;2024-03-02T13:09:55;99411.56;;;15.53;61.15
3917;BME280;1973;50.518;7.318;2024-03-02T13:12:23;99399.00;;;15.71;59.60
3917;BME280;1973;50.518;7.318;2024-03-02T13:14:53;99394.84;;;15.73;57.32
3917;BME280;1973;50.518;7.318;2024-03-02T13:17:21;99383.94;;;15.87;57.98
3917;BME280;1973;50.518;7.318;2024-03-02T13:19:59;99390.88;;;15.89;56.60
3917;BME280;1973;50.518;7.318;2024-03-02T13:22:26;99376.72;;;15.86;57.05
3917;BME280;1973;50.518;7.318;2024-03-02T13:24:53;99383.13;;;15.86;57.08
3917;BME280;1973;50.518;7.318;2024-03-02T13:27:24;99381.50;;;15.75;57.60
3917;BME280;1973;50.518;7.318;2024-03-02T13:29:50;99377.38;;;15.73;57.20